Time;durP1;ratioP1;P1;durP2;ratioP2;P2;SDS_P1;SDS_P2;PMS_P1;PMS_P2;Temp;Humidity;BMP_temperature;BMP_pressure;BME280_temperature;BME280_humidity;BME280_pressure;Samples;Min_cycle;Max_cycle;Signal;HPM_P1;HPM_P2
2022/12/06 00:01:11;;;;;;;21.63;13.60;;;2.30;99.90;;;;;;4374859;28;9999927;-73
2022/12/06 00:03:37;;;;;;;22.50;13.27;;;2.40;99.90;;;;;;5081085;28;20028;-73
2022/12/06 00:06:09;;;;;;;21.38;14.38;;;2.40;99.90;;;;;;5078496;28;20032;-73
2022/12/06 00:08:35;;;;;;;22.25;14.07;;;2.40;99.90;;;;;;5078499;28;20044;-73
2022/12/06 00:11:15;;;;;;;20.63;13.80;;;2.40;99.90;;;;;;5082564;28;20039;-73
2022/12/06 00:13:41;;;;;;;20.05;13.95;;;2.40;99.90;;;;;;5080001;28;20359;-73
2022/12/06 00:16:10;;;;;;;22.38;13.80;;;2.40;99.90;;;;;;5073387;28;20542;-73
2022/12/06 00:18:38;;;;;;;23.60;13.30;;;2.40;99.90;;;;;;5077157;28;20028;-73
2022/12/06 00:21:27;;;;;;;21.90;14.63;;;2.30;99.90;;;;;;5078273;28;20035;-73
2022/12/06 00:24:01;;;;;;;19.75;13.20;;;2.40;99.90;;;;;;5072955;28;20078;-73
2022/12/06 00:26:27;;;;;;;18.85;12.85;;;2.40;99.90;;;;;;5078280;28;20430;-73
2022/12/06 00:28:56;;;;;;;22.23;13.77;;;2.40;99.90;;;;;;5072933;28;20036;-73
2022/12/06 00:31:23;;;;;;;20.13;13.43;;;2.40;99.90;;;;;;5077030;28;20047;-73
2022/12/06 00:33:49;;;;;;;21.33;14.18;;;2.40;99.90;;;;;;5080424;28;20036;-73
2022/12/06 00:36:18;;;;;;;23.20;14.05;;;2.30;99.90;;;;;;5084071;28;20088;-73
2022/12/06 00:38:44;;;;;;;23.45;15.02;;;2.30;99.90;;;;;;5083469;28;20024;-73
2022/12/06 00:41:12;;;;;;;21.15;13.88;;;2.40;99.90;;;;;;5086321;28;20033;-72
2022/12/06 00:43:38;;;;;;;22.40;14.68;;;2.40;99.90;;;;;;5083760;28;20048;-72
2022/12/06 00:46:06;;;;;;;23.75;14.63;;;2.40;99.90;;;;;;5085901;28;20103;-72
2022/12/06 00:48:32;;;;;;;19.10;12.93;;;2.40;99.90;;;;;;5080827;28;20466;-72
2022/12/06 00:50:57;;;;;;;21.25;13.30;;;2.40;99.90;;;;;;5083948;28;20024;-72
2022/12/06 00:53:24;;;;;;;20.92;13.98;;;2.40;99.90;;;;;;5079774;28;20024;-72
2022/12/06 00:55:49;;;;;;;23.25;14.45;;;2.40;99.90;;;;;;5079455;28;20032;-72
2022/12/06 00:58:16;;;;;;;19.98;13.13;;;2.40;99.90;;;;;;5083879;28;20463;-72
2022/12/06 01:00:41;;;;;;;22.67;13.88;;;2.40;99.90;;;;;;5083833;28;20447;-72
2022/12/06 01:03:08;;;;;;;21.33;13.85;;;2.40;99.90;;;;;;5080124;28;20169;-73
2022/12/06 01:05:43;;;;;;;19.67;14.13;;;2.30;99.90;;;;;;5074211;28;20036;-73
2022/12/06 01:08:09;;;;;;;22.55;14.57;;;2.30;99.90;;;;;;5076993;28;20069;-73
2022/12/06 01:10:35;;;;;;;21.75;15.10;;;2.30;99.90;;;;;;5074168;28;20029;-72
2022/12/06 01:13:01;;;;;;;22.77;16.02;;;2.30;99.90;;;;;;5075829;28;20162;-73
2022/12/06 01:15:27;;;;;;;24.92;16.10;;;2.30;99.90;;;;;;5077088;28;20126;-73
2022/12/06 01:17:52;;;;;;;23.98;16.52;;;2.30;99.90;;;;;;5084006;28;20065;-73
2022/12/06 01:20:18;;;;;;;24.38;16.98;;;2.30;99.90;;;;;;5083157;28;20044;-73
2022/12/06 01:22:43;;;;;;;22.63;15.85;;;2.30;99.90;;;;;;5084095;28;20027;-73
2022/12/06 01:25:09;;;;;;;21.65;15.07;;;2.30;99.90;;;;;;5076350;28;20538;-73
2022/12/06 01:27:35;;;;;;;20.38;14.52;;;2.30;99.90;;;;;;5083477;28;20016;-73
2022/12/06 01:30:00;;;;;;;20.08;13.20;;;2.30;99.90;;;;;;5076735;28;20059;-72
2022/12/06 01:32:29;;;;;;;23.08;15.20;;;2.30;99.90;;;;;;5076374;28;20409;-73
2022/12/06 01:34:55;;;;;;;24.70;15.95;;;2.30;99.90;;;;;;5081425;28;20035;-73
2022/12/06 01:37:20;;;;;;;20.45;13.98;;;2.30;99.90;;;;;;5074469;28;20036;-73
2022/12/06 01:39:46;;;;;;;20.95;13.98;;;2.30;99.90;;;;;;5080368;28;20085;-73
2022/12/06 01:42:13;;;;;;;20.67;13.88;;;2.30;99.90;;;;;;5070054;28;20024;-73
2022/12/06 01:44:39;;;;;;;20.63;13.73;;;2.30;99.90;;;;;;5078571;28;20040;-73
2022/12/06 01:47:10;;;;;;;20.27;13.95;;;2.30;99.90;;;;;;5077198;28;20039;-73
2022/12/06 01:49:35;;;;;;;26.20;15.25;;;2.30;99.90;;;;;;5083149;28;20039;-73
2022/12/06 01:52:06;;;;;;;26.17;15.85;;;2.30;99.90;;;;;;5083692;28;20084;-72
2022/12/06 01:54:32;;;;;;;34.90;17.25;;;2.30;99.90;;;;;;5076601;28;20039;-72
2022/12/06 01:56:59;;;;;;;28.48;16.40;;;2.30;99.90;;;;;;5082299;28;20504;-72
2022/12/06 01:59:26;;;;;;;25.27;15.57;;;2.30;99.90;;;;;;5082138;28;20177;-72
2022/12/06 02:01:52;;;;;;;25.90;15.95;;;2.30;99.90;;;;;;5079397;28;20089;-72
2022/12/06 02:04:19;;;;;;;25.80;15.40;;;2.30;99.90;;;;;;5079296;28;20406;-72
2022/12/06 02:06:46;;;;;;;20.75;13.52;;;2.30;99.90;;;;;;5077870;28;20028;-72
2022/12/06 02:09:13;;;;;;;19.20;12.85;;;2.30;99.90;;;;;;5080381;28;20077;-72
2022/12/06 02:11:38;;;;;;;18.88;12.73;;;2.30;99.90;;;;;;5083000;28;20474;-72
2022/12/06 02:14:08;;;;;;;20.70;14.10;;;2.30;99.90;;;;;;5075234;28;20036;-72
2022/12/06 02:16:36;;;;;;;23.38;13.98;;;2.30;99.90;;;;;;5076138;28;20040;-72
2022/12/06 02:19:20;;;;;;;18.52;13.05;;;2.30;99.90;;;;;;5079022;28;20390;-72
2022/12/06 02:22:05;;;;;;;21.50;13.73;;;2.40;99.90;;;;;;5079313;28;20066;-72
2022/12/06 02:25:00;;;;;;;19.30;13.40;;;2.40;99.90;;;;;;5070909;28;20028;-72
2022/12/06 02:27:48;;;;;;;21.10;13.30;;;2.30;99.90;;;;;;5020121;28;20028;-73
2022/12/06 02:30:44;;;;;;;19.23;12.85;;;2.30;99.90;;;;;;5063113;28;20063;-72
2022/12/06 02:33:24;;;;;;;20.08;13.63;;;2.30;99.90;;;;;;5070295;28;20371;-73
2022/12/06 02:36:03;;;;;;;19.90;13.98;;;2.40;99.90;;;;;;5075350;28;20062;-73
2022/12/06 02:38:42;;;;;;;20.80;14.43;;;2.30;99.90;;;;;;5076366;28;20059;-73
2022/12/06 02:41:19;;;;;;;20.33;13.95;;;2.30;99.90;;;;;;5078020;28;20043;-72
2022/12/06 02:43:52;;;;;;;17.60;12.93;;;2.40;99.90;;;;;;5072867;28;20045;-73
2022/12/06 02:46:19;;;;;;;;;;;2.40;99.90;;;;;;5077617;28;20115;-73
2022/12/06 02:48:46;;;;;;;18.58;12.27;;;2.40;99.90;;;;;;5076399;28;19911;-73
2022/12/06 02:51:15;;;;;;;17.40;12.13;;;2.30;99.90;;;;;;5073904;28;20025;-73
2022/12/06 02:53:46;;;;;;;18.10;12.40;;;2.30;99.90;;;;;;5072890;28;20103;-73
2022/12/06 02:56:15;;;;;;;17.95;12.13;;;2.40;99.90;;;;;;5069019;28;20099;-73
2022/12/06 02:58:40;;;;;;;15.30;11.23;;;2.30;99.90;;;;;;5072427;28;20025;-73
2022/12/06 03:01:19;;;;;;;17.45;12.18;;;2.30;99.90;;;;;;5080963;28;20020;-73
2022/12/06 03:03:59;;;;;;;16.80;11.82;;;2.30;99.90;;;;;;5079751;28;20022;-72
2022/12/06 03:06:51;;;;;;;16.23;11.90;;;2.30;99.90;;;;;;5076905;28;20426;-73
2022/12/06 03:09:43;;;;;;;16.20;11.73;;;2.30;99.90;;;;;;5074053;28;20031;-72
2022/12/06 03:12:44;;;;;;;17.27;11.93;;;2.30;99.90;;;;;;5076939;28;20166;-72
2022/12/06 03:15:27;;;;;;;15.98;11.20;;;2.30;99.90;;;;;;5071439;28;20035;-72
2022/12/06 03:18:00;;;;;;;15.90;11.70;;;2.30;99.90;;;;;;5078052;28;20515;-72
2022/12/06 03:20:41;;;;;;;17.40;11.68;;;2.30;99.90;;;;;;5078124;28;20122;-72
2022/12/06 03:23:11;;;;;;;17.83;12.10;;;2.30;99.90;;;;;;5077079;28;20036;-72
2022/12/06 03:25:37;;;;;;;18.33;12.48;;;2.30;99.90;;;;;;5073977;28;20040;-72
2022/12/06 03:28:05;;;;;;;17.35;12.02;;;2.30;99.90;;;;;;5075934;28;20017;-72
2022/12/06 03:30:33;;;;;;;20.83;12.20;;;2.30;99.90;;;;;;5069335;28;20028;-72
2022/12/06 03:33:00;;;;;;;18.20;12.38;;;2.30;99.90;;;;;;5073820;28;20020;-72
2022/12/06 03:35:30;;;;;;;16.83;12.10;;;2.30;99.90;;;;;;5074125;28;20568;-72
2022/12/06 03:38:03;;;;;;;17.40;12.20;;;2.30;99.90;;;;;;5072239;28;20662;-72
2022/12/06 03:40:32;;;;;;;17.38;11.85;;;2.30;99.90;;;;;;5075485;28;20032;-72
2022/12/06 03:43:00;;;;;;;20.67;12.38;;;2.30;99.90;;;;;;5075527;28;20208;-72
2022/12/06 03:45:53;;;;;;;18.33;11.88;;;2.30;99.90;;;;;;5068016;28;20524;-73
2022/12/06 03:48:25;;;;;;;19.02;11.57;;;2.30;99.90;;;;;;5071212;28;20039;-73
2022/12/06 03:51:00;;;;;;;18.00;11.57;;;2.30;99.90;;;;;;5079800;28;20100;-73
2022/12/06 03:53:25;;;;;;;17.08;11.25;;;2.30;99.90;;;;;;5071366;28;20036;-72
2022/12/06 03:55:51;;;;;;;14.82;10.98;;;2.30;99.90;;;;;;5073867;28;20469;-72
2022/12/06 03:58:17;;;;;;;15.30;10.60;;;2.30;99.90;;;;;;5081943;28;20028;-73
2022/12/06 04:00:43;;;;;;;14.38;10.52;;;2.30;99.90;;;;;;5078281;28;20028;-72
2022/12/06 04:03:08;;;;;;;13.85;10.85;;;2.30;99.90;;;;;;5075603;28;20084;-72
2022/12/06 04:05:34;;;;;;;15.90;11.52;;;2.30;99.90;;;;;;5076683;28;20024;-73
2022/12/06 04:07:59;;;;;;;16.15;11.55;;;2.40;99.90;;;;;;5074742;28;20021;-72
2022/12/06 04:10:25;;;;;;;13.63;10.23;;;2.40;99.90;;;;;;5077650;28;20028;-72
2022/12/06 04:12:59;;;;;;;15.02;10.32;;;2.40;99.90;;;;;;5076174;28;20761;-72
2022/12/06 04:15:27;;;;;;;14.93;10.40;;;2.40;99.90;;;;;;5069133;28;21173;-72
2022/12/06 04:23:28;;;;;;;15.15;10.63;;;2.30;99.90;;;;;;5073516;28;20111;-72
2022/12/06 04:25:54;;;;;;;14.70;10.07;;;2.30;99.90;;;;;;5079223;28;20505;-72
2022/12/06 04:39:17;;;;;;;14.88;10.40;;;2.40;99.90;;;;;;5082778;28;20039;-71
2022/12/06 04:44:27;;;;;;;15.13;10.30;;;2.30;99.90;;;;;;5086317;28;20051;-71
2022/12/06 04:46:53;;;;;;;15.60;10.48;;;2.30;99.90;;;;;;5077636;28;20024;-71
2022/12/06 04:49:18;;;;;;;17.45;10.63;;;2.30;99.90;;;;;;5073146;28;20088;-71
2022/12/06 04:51:44;;;;;;;16.75;10.85;;;2.30;99.90;;;;;;5086495;28;20035;-71
2022/12/06 04:54:10;;;;;;;18.83;11.98;;;2.30;99.90;;;;;;5079317;28;20116;-71
2022/12/06 04:56:35;;;;;;;22.40;13.43;;;2.30;99.90;;;;;;5079562;28;20038;-71
2022/12/06 04:59:01;;;;;;;19.73;12.57;;;2.30;99.90;;;;;;5073666;28;20023;-71
2022/12/06 05:01:27;;;;;;;17.80;11.05;;;2.30;99.90;;;;;;5076391;28;20024;-71
2022/12/06 05:03:52;;;;;;;17.02;10.13;;;2.30;99.90;;;;;;5076481;28;20124;-71
2022/12/06 05:06:18;;;;;;;13.70;9.70;;;2.30;99.90;;;;;;5084853;28;20036;-72
2022/12/06 05:08:43;;;;;;;12.93;9.30;;;2.30;99.90;;;;;;5081146;28;20032;-72
2022/12/06 05:11:09;;;;;;;12.70;9.55;;;2.30;99.90;;;;;;5084122;28;20093;-72
2022/12/06 05:13:35;;;;;;;13.38;9.50;;;2.30;99.90;;;;;;5078005;28;20036;-73
2022/12/06 05:16:04;;;;;;;13.27;9.18;;;2.30;99.90;;;;;;5073314;28;20030;-72
2022/12/06 05:18:30;;;;;;;12.95;9.30;;;2.30;99.90;;;;;;5076735;28;20085;-72
2022/12/06 05:21:13;;;;;;;13.02;9.77;;;2.30;99.90;;;;;;5075548;28;20047;-72
2022/12/06 05:23:40;;;;;;;18.13;12.85;;;2.30;99.90;;;;;;5072109;28;20035;-72
2022/12/06 05:26:10;;;;;;;22.17;15.13;;;2.30;99.90;;;;;;5074995;28;20506;-72
2022/12/06 05:28:35;;;;;;;24.13;17.50;;;2.30;99.90;;;;;;5079701;28;20031;-73
2022/12/06 05:31:01;;;;;;;21.92;16.88;;;2.30;99.90;;;;;;5075018;28;20035;-72
2022/12/06 05:33:27;;;;;;;18.63;14.13;;;2.30;99.90;;;;;;5073213;28;20043;-72
2022/12/06 05:35:53;;;;;;;14.65;11.25;;;2.30;99.90;;;;;;5078216;28;20031;-72
2022/12/06 05:38:19;;;;;;;13.30;10.13;;;2.30;99.90;;;;;;5080448;28;20028;-72
2022/12/06 05:40:46;;;;;;;16.60;11.52;;;2.30;99.90;;;;;;5086363;28;20394;-72
2022/12/06 05:43:12;;;;;;;17.02;12.98;;;2.30;99.90;;;;;;5075519;28;20055;-72
2022/12/06 05:45:38;;;;;;;18.30;13.70;;;2.30;99.90;;;;;;5072874;28;20541;-72
2022/12/06 05:48:04;;;;;;;15.00;11.20;;;2.30;99.90;;;;;;5083140;28;20051;-72
2022/12/06 05:50:30;;;;;;;14.07;10.13;;;2.30;99.90;;;;;;5085197;28;20028;-72
2022/12/06 05:52:57;;;;;;;13.40;9.40;;;2.30;99.90;;;;;;5083525;28;20741;-72
2022/12/06 05:55:23;;;;;;;14.05;9.90;;;2.40;99.90;;;;;;5080635;28;20031;-72
2022/12/06 05:57:49;;;;;;;16.50;9.80;;;2.40;99.90;;;;;;5072343;28;20086;-72
2022/12/06 06:00:16;;;;;;;14.52;10.20;;;2.40;99.90;;;;;;5079788;28;20036;-72
2022/12/06 06:02:42;;;;;;;14.32;10.82;;;2.40;99.90;;;;;;4720909;28;10000156;-72
2022/12/06 06:05:08;;;;;;;17.23;10.68;;;2.30;99.90;;;;;;5073498;28;20020;-72
2022/12/06 06:07:33;;;;;;;14.13;11.05;;;2.30;99.90;;;;;;5077469;28;20038;-72
2022/12/06 06:09:59;;;;;;;17.23;10.70;;;2.30;99.90;;;;;;5074714;28;20730;-72
2022/12/06 06:12:25;;;;;;;16.17;10.57;;;2.30;99.90;;;;;;5072389;28;20035;-72
2022/12/06 06:14:50;;;;;;;17.00;10.82;;;2.30;99.90;;;;;;5075503;28;20553;-72
2022/12/06 06:17:16;;;;;;;13.82;10.52;;;2.30;99.90;;;;;;5073828;28;20770;-72
2022/12/06 06:19:42;;;;;;;15.57;10.27;;;2.30;99.90;;;;;;5075780;28;20498;-73
2022/12/06 06:22:08;;;;;;;13.70;9.93;;;2.30;99.90;;;;;;5065935;28;20119;-73
2022/12/06 06:24:35;;;;;;;16.23;10.02;;;2.30;99.90;;;;;;5073552;28;20027;-73
2022/12/06 06:27:02;;;;;;;14.05;9.60;;;2.30;99.90;;;;;;5065845;28;20028;-73
2022/12/06 06:29:28;;;;;;;12.25;9.32;;;2.30;99.90;;;;;;5064633;28;20058;-73
2022/12/06 06:31:54;;;;;;;15.77;10.85;;;2.20;99.90;;;;;;5064260;28;20462;-73
2022/12/06 06:34:19;;;;;;;14.90;10.27;;;2.20;99.90;;;;;;5070970;28;20517;-73
2022/12/06 06:36:45;;;;;;;15.23;9.88;;;2.20;99.90;;;;;;5071033;28;20047;-73
2022/12/06 06:39:11;;;;;;;14.35;10.43;;;2.20;99.90;;;;;;5068619;28;20024;-73
2022/12/06 06:41:37;;;;;;;13.95;10.32;;;2.20;99.90;;;;;;5066353;28;20430;-72
2022/12/06 06:44:03;;;;;;;14.73;10.15;;;2.20;99.90;;;;;;5067700;28;20573;-72
2022/12/06 06:46:29;;;;;;;15.13;10.02;;;2.20;99.90;;;;;;5073030;28;20024;-72
2022/12/06 06:48:55;;;;;;;13.27;10.15;;;2.20;99.90;;;;;;5075435;28;20082;-72
2022/12/06 06:51:21;;;;;;;14.20;10.15;;;2.20;99.90;;;;;;5077279;28;20093;-72
2022/12/06 06:53:47;;;;;;;13.82;9.98;;;2.30;99.90;;;;;;5076107;28;20505;-72
2022/12/06 06:56:13;;;;;;;16.95;10.45;;;2.30;99.90;;;;;;5071322;28;20250;-71
2022/12/06 06:58:39;;;;;;;14.27;10.10;;;2.30;99.90;;;;;;5073532;28;20032;-71
2022/12/06 07:01:07;;;;;;;14.82;11.05;;;2.20;99.90;;;;;;5067552;28;20036;-71
2022/12/06 07:03:34;;;;;;;16.67;11.38;;;2.20;99.90;;;;;;5069710;28;20024;-71
2022/12/06 07:06:06;;;;;;;16.27;11.27;;;2.30;99.90;;;;;;5077619;28;20102;-71
2022/12/06 07:08:32;;;;;;;13.93;10.68;;;2.20;99.90;;;;;;5072943;28;20520;-71
2022/12/06 07:10:58;;;;;;;15.10;10.52;;;2.30;99.90;;;;;;5079498;28;20035;-72
2022/12/06 07:13:26;;;;;;;13.77;10.30;;;2.20;99.90;;;;;;5068568;28;20087;-72
2022/12/06 07:15:52;;;;;;;13.68;9.82;;;2.20;99.90;;;;;;5077541;28;20180;-72
2022/12/06 07:18:19;;;;;;;13.45;10.15;;;2.20;99.90;;;;;;5080430;28;20170;-72
2022/12/06 07:20:46;;;;;;;12.77;9.07;;;2.20;99.90;;;;;;5076350;28;20031;-72
2022/12/06 07:23:12;;;;;;;18.70;12.15;;;2.30;99.90;;;;;;5066780;28;20023;-72
2022/12/06 07:25:38;;;;;;;15.55;10.13;;;2.30;99.90;;;;;;5088427;28;20016;-72
2022/12/06 07:28:04;;;;;;;13.82;9.35;;;2.20;99.90;;;;;;5081172;28;20019;-72
2022/12/06 07:30:30;;;;;;;11.90;8.98;;;2.20;99.90;;;;;;5076412;28;20458;-72
2022/12/06 07:32:56;;;;;;;12.10;8.70;;;2.20;99.90;;;;;;5082103;28;20020;-72
2022/12/06 07:35:22;;;;;;;10.75;7.80;;;2.20;99.90;;;;;;5078991;28;20050;-72
2022/12/06 07:37:47;;;;;;;13.13;8.02;;;2.20;99.90;;;;;;5081962;28;20032;-72
2022/12/06 07:40:15;;;;;;;10.70;7.90;;;2.30;99.90;;;;;;5074752;28;20035;-72
2022/12/06 07:45:25;;;;;;;9.25;7.00;;;2.20;99.90;;;;;;5069367;28;20039;-72
2022/12/06 07:47:51;;;;;;;11.65;7.78;;;2.30;99.90;;;;;;5081565;28;20020;-72
2022/12/06 07:50:18;;;;;;;11.13;8.02;;;;;;;;;;5071275;28;20204;-72
2022/12/06 07:52:46;;;;;;;11.48;7.93;;;2.30;99.90;;;;;;5081893;28;20089;-72
2022/12/06 07:55:13;;;;;;;12.43;7.55;;;2.20;99.90;;;;;;5079790;28;20024;-73
2022/12/06 07:57:39;;;;;;;10.45;7.40;;;2.20;99.90;;;;;;5079378;28;20031;-72
2022/12/06 08:00:07;;;;;;;11.43;7.45;;;2.20;99.90;;;;;;5077283;28;20027;-73
2022/12/06 08:02:32;;;;;;;10.40;7.68;;;2.20;99.90;;;;;;5079290;28;20417;-72
2022/12/06 08:04:58;;;;;;;11.10;7.15;;;2.20;99.90;;;;;;5074509;28;20020;-73
2022/12/06 08:07:24;;;;;;;12.73;7.80;;;2.20;99.90;;;;;;5082586;28;20020;-72
2022/12/06 08:09:52;;;;;;;11.60;7.60;;;2.20;99.90;;;;;;5079185;28;20423;-72
2022/12/06 08:12:18;;;;;;;11.68;6.82;;;2.20;99.90;;;;;;5070485;28;20236;-72
2022/12/06 08:14:44;;;;;;;11.35;7.45;;;2.20;99.90;;;;;;5076356;28;20776;-72
2022/12/06 08:17:10;;;;;;;10.75;7.80;;;2.30;99.90;;;;;;5083656;28;20039;-72
2022/12/06 08:19:35;;;;;;;10.90;7.72;;;2.20;99.90;;;;;;5083440;28;20043;-72
2022/12/06 08:22:01;;;;;;;17.73;6.95;;;2.30;99.90;;;;;;5079298;28;20028;-72
2022/12/06 08:24:27;;;;;;;16.13;7.80;;;2.30;99.90;;;;;;5070941;28;20035;-72
2022/12/06 08:26:54;;;;;;;10.77;7.50;;;2.20;99.90;;;;;;5083353;28;20024;-72
2022/12/06 08:29:20;;;;;;;12.45;8.27;;;2.30;99.90;;;;;;5080886;28;20028;-72
2022/12/06 08:31:46;;;;;;;13.38;8.93;;;2.30;99.90;;;;;;5076415;28;20024;-72
2022/12/06 08:34:12;;;;;;;12.55;9.13;;;2.30;99.90;;;;;;5074813;28;20091;-72
2022/12/06 08:36:39;;;;;;;11.40;8.07;;;2.30;99.90;;;;;;5076005;28;20016;-72
2022/12/06 08:39:06;;;;;;;12.98;8.00;;;2.30;99.90;;;;;;5077000;28;20521;-72
2022/12/06 08:44:16;;;;;;;10.15;6.93;;;2.30;99.90;;;;;;5078072;28;20147;-72
2022/12/06 08:46:42;;;;;;;9.40;6.53;;;2.40;99.90;;;;;;5078575;28;20033;-72
2022/12/06 08:49:08;;;;;;;10.52;6.82;;;2.40;99.90;;;;;;5083601;28;20441;-72
2022/12/06 08:51:34;;;;;;;10.50;7.18;;;2.40;99.90;;;;;;5077378;28;20035;-72
2022/12/06 08:54:01;;;;;;;9.98;7.18;;;2.40;99.90;;;;;;5079350;28;20040;-73
2022/12/06 08:56:27;;;;;;;10.45;7.10;;;2.40;99.90;;;;;;5075458;28;20024;-73
2022/12/06 08:58:54;;;;;;;10.73;7.22;;;2.40;99.90;;;;;;5080339;28;20032;-74
2022/12/06 09:01:22;;;;;;;10.68;6.97;;;2.50;99.90;;;;;;5072821;28;20470;-73
2022/12/06 09:03:48;;;;;;;11.80;6.43;;;2.50;99.90;;;;;;5080432;28;20032;-73
2022/12/06 09:06:14;;;;;;;8.38;6.13;;;2.50;99.90;;;;;;5069096;28;20025;-71
2022/12/06 09:08:40;;;;;;;9.88;6.80;;;2.50;99.90;;;;;;5078306;28;20401;-74
2022/12/06 09:11:07;;;;;;;12.23;7.85;;;2.60;99.90;;;;;;5083672;28;20028;-73
2022/12/06 09:13:35;;;;;;;15.55;9.45;;;2.60;99.90;;;;;;5081102;28;20062;-73
2022/12/06 09:16:05;;;;;;;24.63;15.00;;;2.60;99.90;;;;;;5080136;28;20029;-74
2022/12/06 09:18:31;;;;;;;18.67;11.35;;;2.60;99.90;;;;;;5069375;28;20032;-74
2022/12/06 09:20:57;;;;;;;14.43;10.35;;;2.60;99.90;;;;;;5087782;28;20394;-73
2022/12/06 09:23:23;;;;;;;12.18;7.90;;;2.60;99.90;;;;;;5084183;28;20028;-73
2022/12/06 09:25:48;;;;;;;10.05;7.50;;;2.70;99.90;;;;;;5079780;28;20097;-72
2022/12/06 09:28:14;;;;;;;10.05;7.30;;;2.70;99.90;;;;;;5072613;28;20670;-72
2022/12/06 09:30:40;;;;;;;10.00;6.78;;;2.70;99.90;;;;;;5084624;28;20036;-73
2022/12/06 09:33:05;;;;;;;14.88;6.90;;;2.70;99.90;;;;;;5079763;28;20039;-73
2022/12/06 09:35:32;;;;;;;11.07;6.00;;;2.80;99.90;;;;;;5074756;28;20024;-73
2022/12/06 09:37:59;;;;;;;10.45;5.68;;;2.70;99.90;;;;;;5070990;28;20086;-73
2022/12/06 09:40:31;;;;;;;9.95;6.22;;;2.80;99.90;;;;;;5083134;28;20032;-74
2022/12/06 09:43:09;;;;;;;11.40;5.90;;;2.80;99.90;;;;;;5071149;28;20025;-74
2022/12/06 09:45:59;;;;;;;10.05;6.00;;;2.80;99.90;;;;;;5085553;28;20478;-74
2022/12/06 09:48:55;;;;;;;13.05;5.25;;;2.80;99.90;;;;;;5087899;28;20670;-73
2022/12/06 09:51:39;;;;;;;9.85;5.38;;;2.80;99.90;;;;;;5082188;28;20447;-72
2022/12/06 09:54:23;;;;;;;8.95;4.93;;;2.80;99.90;;;;;;5074464;28;20039;-73
2022/12/06 09:57:04;;;;;;;11.18;5.50;;;2.90;99.90;;;;;;5073829;28;20036;-74
2022/12/06 10:00:11;;;;;;;8.25;4.93;;;2.90;99.90;;;;;;5077548;28;20105;-73
2022/12/06 10:03:00;;;;;;;9.85;4.93;;;2.90;99.90;;;;;;5076066;28;20040;-73
2022/12/06 10:05:49;;;;;;;10.38;5.65;;;2.90;99.90;;;;;;5073660;28;20813;-73
2022/12/06 10:08:44;;;;;;;10.43;5.03;;;2.90;99.90;;;;;;5084553;28;20074;-73
2022/12/06 10:11:41;;;;;;;9.20;5.03;;;2.90;99.90;;;;;;5043518;28;20070;-73
2022/12/06 10:14:33;;;;;;;9.43;5.78;;;2.90;99.90;;;;;;5078109;28;20047;-73
2022/12/06 10:17:35;;;;;;;10.00;5.55;;;3.00;99.90;;;;;;5085769;28;20058;-73
2022/12/06 10:20:24;;;;;;;10.25;5.55;;;3.00;99.90;;;;;;5081150;28;20063;-73
2022/12/06 10:23:14;;;;;;;9.38;5.05;;;3.00;99.90;;;;;;5076919;28;20096;-73
2022/12/06 10:26:01;;;;;;;9.27;5.28;;;3.00;99.90;;;;;;5084064;28;20032;-73
2022/12/06 10:28:47;;;;;;;12.05;6.25;;;3.10;99.90;;;;;;5078836;28;20538;-72
2022/12/06 10:31:25;;;;;;;10.23;5.03;;;3.10;99.90;;;;;;5075398;28;20498;-72
2022/12/06 10:33:56;;;;;;;9.55;5.30;;;3.10;99.90;;;;;;5069043;28;20025;-73
2022/12/06 10:36:54;;;;;;;9.68;5.15;;;3.20;99.90;;;;;;5081743;28;20029;-72
2022/12/06 10:39:47;;;;;;;10.00;5.22;;;3.10;99.90;;;;;;5061280;28;20407;-72
2022/12/06 10:42:36;;;;;;;8.45;5.38;;;3.20;99.90;;;;;;5082686;28;20350;-72
2022/12/06 10:47:02;;;;;;;9.18;5.40;;;3.20;99.90;;;;;;5057602;28;20028;-72
2022/12/06 10:48:03;;;;;;;7.95;4.70;;;3.20;99.90;;;;;;5085401;28;20595;-72
2022/12/06 10:50:32;;;;;;;7.72;4.22;;;3.20;99.90;;;;;;5084541;28;20051;-72
2022/12/06 10:53:11;;;;;;;6.75;4.00;;;3.20;99.90;;;;;;5082380;28;20031;-72
2022/12/06 10:55:47;;;;;;;8.80;4.25;;;3.20;99.90;;;;;;5079474;28;20032;-73
2022/12/06 10:58:54;;;;;;;6.97;4.65;;;3.20;99.90;;;;;;5085100;28;20097;-72
2022/12/06 11:01:27;;;;;;;7.15;4.28;;;3.20;99.90;;;;;;5085801;28;20493;-72
2022/12/06 11:04:19;;;;;;;7.47;4.68;;;3.20;99.90;;;;;;5076466;28;20032;-72
2022/12/06 11:07:16;;;;;;;6.07;3.78;;;3.20;99.90;;;;;;5089011;28;20062;-72
2022/12/06 11:09:50;;;;;;;6.97;4.25;;;3.20;99.90;;;;;;5073749;28;20051;-72
2022/12/06 11:12:26;;;;;;;7.53;4.45;;;3.40;99.90;;;;;;5071379;28;20403;-72
2022/12/06 11:14:57;;;;;;;7.20;4.10;;;3.30;99.90;;;;;;5084746;28;20044;-73
2022/12/06 11:17:31;;;;;;;6.63;4.30;;;3.30;99.90;;;;;;5089579;28;20603;-72
2022/12/06 11:20:09;;;;;;;7.47;4.53;;;3.30;99.90;;;;;;5083084;28;20032;-72
2022/12/06 11:22:53;;;;;;;8.68;5.63;;;3.30;99.90;;;;;;5088052;28;20695;-73
2022/12/06 11:25:18;;;;;;;;;;;3.30;99.90;;;;;;5066775;28;20078;-73
2022/12/06 11:28:20;;;;;;;8.05;4.88;;;3.30;99.90;;;;;;5088334;28;19907;-72
2022/12/06 11:30:52;;;;;;;7.75;4.78;;;3.30;99.90;;;;;;5081490;28;20041;-72
2022/12/06 11:33:20;;;;;;;8.27;5.30;;;3.30;99.90;;;;;;5080906;28;20541;-72
2022/12/06 11:35:46;;;;;;;8.93;5.80;;;;;;;;;;5083658;28;20111;-72
2022/12/06 11:38:15;;;;;;;11.63;5.95;;;3.40;99.90;;;;;;5088213;28;20505;-73
2022/12/06 11:40:45;;;;;;;9.95;5.90;;;3.40;99.90;;;;;;5070787;28;20415;-73
2022/12/06 11:43:23;;;;;;;7.60;5.25;;;3.40;99.90;;;;;;5073940;28;20460;-73
2022/12/06 11:45:49;;;;;;;8.35;4.97;;;3.50;99.90;;;;;;5087234;28;20107;-72
2022/12/06 11:48:21;;;;;;;7.60;5.22;;;3.50;99.90;;;;;;5084714;28;20034;-73
2022/12/06 11:50:48;;;;;;;8.83;5.40;;;3.50;99.90;;;;;;5087202;28;20032;-73
2022/12/06 11:53:37;;;;;;;9.50;5.63;;;3.50;99.90;;;;;;5084111;28;20509;-73
2022/12/06 11:56:14;;;;;;;8.90;4.90;;;3.50;99.90;;;;;;5079275;28;20032;-72
2022/12/06 11:58:45;;;;;;;8.60;5.57;;;3.60;99.90;;;;;;5084880;28;20089;-73
2022/12/06 12:01:13;;;;;;;8.85;6.15;;;3.50;99.90;;;;;;5087463;28;20032;-72
2022/12/06 12:03:46;;;;;;;11.02;6.35;;;3.60;99.90;;;;;;5078814;28;20484;-72
2022/12/06 12:06:25;;;;;;;9.48;6.07;;;3.60;99.90;;;;;;5082022;28;20021;-72
2022/12/06 12:09:03;;;;;;;8.90;5.10;;;3.50;99.90;;;;;;5081884;28;20082;-72
2022/12/06 12:11:36;;;;;;;9.15;5.45;;;3.50;99.90;;;;;;5088597;28;20371;-73
2022/12/06 12:14:06;;;;;;;8.20;5.43;;;3.50;99.90;;;;;;5069342;28;20064;-72
2022/12/06 12:16:42;;;;;;;8.30;5.50;;;3.60;99.90;;;;;;5079283;28;20039;-73
2022/12/06 12:19:33;;;;;;;12.25;6.38;;;3.60;99.90;;;;;;5084712;28;20084;-72
2022/12/06 12:22:24;;;;;;;7.63;5.97;;;3.60;99.90;;;;;;5078938;28;20040;-71
2022/12/06 12:25:18;;;;;;;8.15;5.82;;;3.60;99.90;;;;;;4723280;28;10000958;-71
2022/12/06 12:27:49;;;;;;;12.85;8.65;;;3.60;99.90;;;;;;5066239;28;20035;-72
2022/12/06 12:30:22;;;;;;;15.05;10.63;;;3.70;99.90;;;;;;5079160;28;20482;-71
2022/12/06 12:32:49;;;;;;;20.35;15.13;;;3.70;99.90;;;;;;5075359;28;20024;-72
2022/12/06 12:35:24;;;;;;;14.65;10.40;;;3.60;99.90;;;;;;5077781;28;20023;-71
2022/12/06 12:38:11;;;;;;;10.13;7.80;;;3.60;99.90;;;;;;5080619;28;20036;-71
2022/12/06 12:40:38;;;;;;;17.85;12.82;;;3.60;99.90;;;;;;5076209;28;20081;-70
2022/12/06 12:43:13;;;;;;;13.18;9.30;;;3.60;99.90;;;;;;5069157;28;20031;-70
2022/12/06 12:46:01;;;;;;;23.27;15.40;;;3.70;99.90;;;;;;5054660;28;20054;-71
2022/12/06 12:48:27;;;;;;;14.80;9.98;;;3.60;99.90;;;;;;5055334;28;20738;-71
2022/12/06 12:50:58;;;;;;;11.25;7.97;;;3.70;99.90;;;;;;5061106;28;20043;-71
2022/12/06 12:53:40;;;;;;;6.40;4.90;;;3.70;99.90;;;;;;5056614;28;20075;-71
2022/12/06 12:56:24;;;;;;;6.93;4.32;;;3.70;99.90;;;;;;5060396;28;20465;-70
2022/12/06 12:58:55;;;;;;;4.38;3.38;;;3.70;99.90;;;;;;5055131;28;20482;-71
2022/12/06 13:01:24;;;;;;;3.95;3.17;;;3.70;99.90;;;;;;5055919;28;20064;-69
2022/12/06 13:04:01;;;;;;;4.10;2.95;;;3.80;99.90;;;;;;5054457;28;20021;-70
2022/12/06 13:06:37;;;;;;;4.70;2.90;;;3.80;99.90;;;;;;5058966;28;20086;-71
2022/12/06 13:09:04;;;;;;;4.80;3.50;;;3.80;99.90;;;;;;5051924;28;20673;-69
2022/12/06 13:11:33;;;;;;;5.93;4.00;;;3.80;99.90;;;;;;5060167;28;20032;-70
2022/12/06 13:14:00;;;;;;;4.53;3.10;;;3.80;99.90;;;;;;5051869;28;20537;-70
2022/12/06 13:16:35;;;;;;;3.63;2.92;;;3.80;99.90;;;;;;5049006;28;20063;-70
2022/12/06 13:19:01;;;;;;;5.22;3.40;;;3.80;99.90;;;;;;5053740;28;20040;-69
2022/12/06 13:21:37;;;;;;;3.80;2.78;;;3.80;99.90;;;;;;5052953;28;20020;-68
2022/12/06 13:24:08;;;;;;;3.85;2.78;;;3.80;99.90;;;;;;5050547;28;20023;-69
2022/12/06 13:26:57;;;;;;;4.78;3.08;;;3.80;99.90;;;;;;5055963;28;20479;-68
2022/12/06 13:29:41;;;;;;;4.15;3.00;;;3.80;99.90;;;;;;5049489;28;20502;-68
2022/12/06 13:32:10;;;;;;;;;;;3.70;99.90;;;;;;5056248;28;20613;-69